Time;durP1;ratioP1;P1;durP2;ratioP2;P2;SDS_P1;SDS_P2;PMS_P1;PMS_P2;Temp;Humidity;BMP_temperature;BMP_pressure;BME280_temperature;BME280_humidity;BME280_pressure;Samples;Min_cycle;Max_cycle;Signal;HPM_P1;HPM_P2
2024/01/22 00:00:49;;;;;;;77.80;38.20;;;;;;;-128.00;-1.00;-1.00;133532;1274;1003926;-78
2024/01/22 00:04:10;;;;;;;85.60;38.60;;;;;;;-128.00;-1.00;-1.00;133616;1274;1004067;-78
2024/01/22 00:07:11;;;;;;;89.30;41.40;;;;;;;-128.00;-1.00;-1.00;133569;1274;1004603;-79
2024/01/22 00:10:12;;;;;;;83.60;39.90;;;;;;;-128.00;-1.00;-1.00;133676;1274;1003991;-79
2024/01/22 00:13:13;;;;;;;75.00;38.10;;;;;;;-128.00;-1.00;-1.00;133583;1274;1004187;-79
2024/01/22 00:16:15;;;;;;;79.90;37.50;;;;;;;-128.00;-1.00;-1.00;133609;1274;1004383;-78
2024/01/22 00:19:16;;;;;;;82.20;38.10;;;;;;;-128.00;-1.00;-1.00;133486;1274;1003739;-78
2024/01/22 00:22:17;;;;;;;90.00;39.50;;;;;;;-128.00;-1.00;-1.00;133600;1274;1004107;-78
2024/01/22 00:25:18;;;;;;;87.90;39.90;;;;;;;-128.00;-1.00;-1.00;133625;1274;1004303;-79
2024/01/22 00:28:19;;;;;;;85.60;40.20;;;;;;;-128.00;-1.00;-1.00;133527;1274;1003735;-78
2024/01/22 00:31:20;;;;;;;84.20;40.10;;;;;;;-128.00;-1.00;-1.00;133677;1274;1003307;-79
2024/01/22 00:34:21;;;;;;;80.70;38.10;;;;;;;-128.00;-1.00;-1.00;133689;1274;1004863;-79
2024/01/22 00:37:22;;;;;;;94.90;41.20;;;;;;;-128.00;-1.00;-1.00;133640;1274;1004392;-79
2024/01/22 00:40:23;;;;;;;86.40;41.00;;;;;;;-128.00;-1.00;-1.00;133604;1274;1003466;-79
2024/01/22 00:43:24;;;;;;;88.50;39.80;;;;;;;-128.00;-1.00;-1.00;133729;1274;1004500;-79
2024/01/22 00:46:25;;;;;;;88.40;40.10;;;;;;;-128.00;-1.00;-1.00;133646;1274;1004581;-78
2024/01/22 00:49:26;;;;;;;86.00;38.00;;;;;;;-128.00;-1.00;-1.00;133541;1274;1003765;-79
2024/01/22 00:52:27;;;;;;;86.50;38.80;;;;;;;-128.00;-1.00;-1.00;133602;1274;1004345;-78
2024/01/22 00:55:28;;;;;;;84.00;38.20;;;;;;;-128.00;-1.00;-1.00;133618;1274;1005122;-78
2024/01/22 00:58:29;;;;;;;85.60;39.00;;;;;;;-128.00;-1.00;-1.00;133589;1274;1004155;-78
2024/01/22 01:01:30;;;;;;;83.90;37.80;;;;;;;-128.00;-1.00;-1.00;133677;1274;1004046;-79
2024/01/22 01:04:31;;;;;;;85.00;36.70;;;;;;;-128.00;-1.00;-1.00;133484;1274;1004011;-78
2024/01/22 01:07:33;;;;;;;74.50;35.60;;;;;;;-128.00;-1.00;-1.00;133568;1274;1004737;-78
2024/01/22 01:10:34;;;;;;;80.40;34.90;;;;;;;-128.00;-1.00;-1.00;133672;1274;1004180;-78
2024/01/22 01:13:36;;;;;;;79.10;35.50;;;;;;;-128.00;-1.00;-1.00;133671;1274;1004620;-79
2024/01/22 01:16:37;;;;;;;82.40;36.30;;;;;;;-128.00;-1.00;-1.00;133514;1274;1005009;-79
2024/01/22 01:19:39;;;;;;;69.80;33.70;;;;;;;-128.00;-1.00;-1.00;133520;1274;1003584;-78
2024/01/22 01:22:40;;;;;;;67.40;32.10;;;;;;;-128.00;-1.00;-1.00;133695;1274;1004050;-79
2024/01/22 01:25:41;;;;;;;65.80;32.70;;;;;;;-128.00;-1.00;-1.00;133554;1274;1004840;-79
2024/01/22 01:28:42;;;;;;;64.50;30.70;;;;;;;-128.00;-1.00;-1.00;133597;1274;1003469;-79
2024/01/22 01:31:43;;;;;;;63.40;30.60;;;;;;;-128.00;-1.00;-1.00;133640;1274;1004870;-79
2024/01/22 01:34:44;;;;;;;62.90;31.60;;;;;;;-128.00;-1.00;-1.00;133486;1274;1004046;-79
2024/01/22 01:37:45;;;;;;;67.10;31.50;;;;;;;-128.00;-1.00;-1.00;133558;1274;1004176;-79
2024/01/22 01:40:46;;;;;;;68.50;31.20;;;;;;;-128.00;-1.00;-1.00;133528;1274;1003961;-79
2024/01/22 01:43:48;;;;;;;67.60;31.90;;;;;;;-128.00;-1.00;-1.00;133614;1274;1004220;-79
2024/01/22 01:46:49;;;;;;;64.00;31.20;;;;;;;-128.00;-1.00;-1.00;133556;1274;1004267;-79
2024/01/22 01:49:50;;;;;;;66.50;30.50;;;;;;;-128.00;-1.00;-1.00;133627;1274;1004316;-80
2024/01/22 01:52:51;;;;;;;62.50;29.70;;;;;;;-128.00;-1.00;-1.00;133541;1274;1004437;-80
2024/01/22 01:55:52;;;;;;;58.30;28.80;;;;;;;-128.00;-1.00;-1.00;133583;1274;1004050;-79
2024/01/22 01:58:54;;;;;;;62.00;28.70;;;;;;;-128.00;-1.00;-1.00;133532;1274;1004746;-79
2024/01/22 02:01:55;;;;;;;67.10;30.30;;;;;;;-128.00;-1.00;-1.00;133636;1274;1003952;-79
2024/01/22 02:04:56;;;;;;;60.20;28.30;;;;;;;-128.00;-1.00;-1.00;133571;1274;1003786;-79
2024/01/22 02:07:57;;;;;;;62.50;28.60;;;;;;;-128.00;-1.00;-1.00;133534;1274;1003651;-78
2024/01/22 02:10:58;;;;;;;60.40;26.50;;;;;;;-128.00;-1.00;-1.00;133651;1274;1004481;-79
2024/01/22 02:13:59;;;;;;;59.80;28.80;;;;;;;-128.00;-1.00;-1.00;133598;1275;1004630;-79
2024/01/22 02:17:00;;;;;;;59.80;27.70;;;;;;;-128.00;-1.00;-1.00;133583;1274;1004232;-79
2024/01/22 02:20:02;;;;;;;62.60;30.10;;;;;;;-128.00;-1.00;-1.00;133529;1274;1005131;-79
2024/01/22 02:23:03;;;;;;;61.70;29.10;;;;;;;-128.00;-1.00;-1.00;133635;1274;1004586;-79
2024/01/22 02:26:04;;;;;;;65.00;29.60;;;;;;;-128.00;-1.00;-1.00;133630;1274;1003881;-79
2024/01/22 02:29:05;;;;;;;72.20;33.10;;;;;;;-128.00;-1.00;-1.00;133648;1274;1003415;-79
2024/01/22 02:32:06;;;;;;;72.20;30.40;;;;;;;-128.00;-1.00;-1.00;133517;1273;1005256;-79
2024/01/22 02:35:08;;;;;;;68.80;28.80;;;;;;;-128.00;-1.00;-1.00;133622;1274;1004549;-79
2024/01/22 02:38:09;;;;;;;60.10;28.60;;;;;;;-128.00;-1.00;-1.00;133643;1274;1004230;-78
2024/01/22 02:41:10;;;;;;;62.80;28.50;;;;;;;-128.00;-1.00;-1.00;133642;1274;1004144;-79
2024/01/22 02:44:11;;;;;;;64.70;28.00;;;;;;;-128.00;-1.00;-1.00;133639;1274;1004580;-78
2024/01/22 02:47:13;;;;;;;68.20;29.80;;;;;;;-128.00;-1.00;-1.00;133578;1274;1003779;-78
2024/01/22 02:50:14;;;;;;;72.30;30.80;;;;;;;-128.00;-1.00;-1.00;133469;1274;1004403;-78
2024/01/22 02:53:15;;;;;;;71.90;29.30;;;;;;;-128.00;-1.00;-1.00;133623;1274;1004179;-80
2024/01/22 02:56:16;;;;;;;63.50;28.10;;;;;;;-128.00;-1.00;-1.00;133651;1274;1004046;-80
2024/01/22 02:59:18;;;;;;;65.40;27.70;;;;;;;-128.00;-1.00;-1.00;133605;1274;1004123;-81
2024/01/22 03:02:19;;;;;;;60.50;26.50;;;;;;;-128.00;-1.00;-1.00;133700;1274;1004634;-79
2024/01/22 03:05:22;;;;;;;65.50;26.70;;;;;;;-128.00;-1.00;-1.00;133678;1274;1003942;-79
2024/01/22 03:08:23;;;;;;;64.40;26.50;;;;;;;-128.00;-1.00;-1.00;133569;1274;1004683;-80
2024/01/22 03:11:25;;;;;;;60.70;25.70;;;;;;;-128.00;-1.00;-1.00;133587;1274;1004769;-79
2024/01/22 03:14:26;;;;;;;59.30;26.60;;;;;;;-128.00;-1.00;-1.00;133609;1274;1003822;-79
2024/01/22 03:17:27;;;;;;;64.50;26.20;;;;;;;-128.00;-1.00;-1.00;133548;1274;1005234;-78
2024/01/22 03:20:28;;;;;;;54.60;25.30;;;;;;;-128.00;-1.00;-1.00;133516;1274;1003841;-79
2024/01/22 03:23:29;;;;;;;56.70;25.00;;;;;;;-128.00;-1.00;-1.00;133607;1274;1003802;-79
2024/01/22 03:26:30;;;;;;;57.00;25.00;;;;;;;-128.00;-1.00;-1.00;133598;1274;1004086;-78
2024/01/22 03:29:31;;;;;;;55.80;26.30;;;;;;;-128.00;-1.00;-1.00;133609;1274;1004818;-79
2024/01/22 03:32:32;;;;;;;57.40;24.50;;;;;;;-128.00;-1.00;-1.00;133579;1274;1003680;-79
2024/01/22 03:35:33;;;;;;;53.70;25.30;;;;;;;-128.00;-1.00;-1.00;133602;1274;1004959;-79
2024/01/22 03:38:34;;;;;;;63.70;25.40;;;;;;;-128.00;-1.00;-1.00;133552;1274;1004699;-79
2024/01/22 03:41:35;;;;;;;51.00;23.40;;;;;;;-128.00;-1.00;-1.00;133650;1274;1003682;-79
2024/01/22 03:44:36;;;;;;;54.70;23.90;;;;;;;-128.00;-1.00;-1.00;133594;1274;1004804;-79
2024/01/22 03:47:37;;;;;;;48.20;23.30;;;;;;;-128.00;-1.00;-1.00;133603;1274;1003783;-79
2024/01/22 03:50:38;;;;;;;43.90;20.00;;;;;;;-128.00;-1.00;-1.00;133626;1274;1004701;-79
2024/01/22 03:53:39;;;;;;;45.10;21.30;;;;;;;-128.00;-1.00;-1.00;133581;1274;1004122;-79
2024/01/22 03:56:40;;;;;;;38.60;19.30;;;;;;;-128.00;-1.00;-1.00;133518;1274;1004282;-79
2024/01/22 03:59:41;;;;;;;38.30;18.80;;;;;;;-128.00;-1.00;-1.00;133537;1274;1004812;-79
2024/01/22 04:02:45;;;;;;;41.70;19.40;;;;;;;-128.00;-1.00;-1.00;133609;1274;1005074;-79
2024/01/22 04:05:46;;;;;;;45.90;19.60;;;;;;;-128.00;-1.00;-1.00;133620;1274;1003370;-79
2024/01/22 04:08:47;;;;;;;41.10;19.20;;;;;;;-128.00;-1.00;-1.00;133625;1274;1003362;-78
2024/01/22 04:11:48;;;;;;;47.10;19.90;;;;;;;-128.00;-1.00;-1.00;133633;1274;1004450;-79
2024/01/22 04:14:49;;;;;;;43.00;20.00;;;;;;;-128.00;-1.00;-1.00;133591;1274;1004164;-79
2024/01/22 04:17:50;;;;;;;38.60;19.30;;;;;;;-128.00;-1.00;-1.00;133640;1274;1004002;-79
2024/01/22 04:20:51;;;;;;;44.90;19.60;;;;;;;-128.00;-1.00;-1.00;133610;1274;1004382;-79
2024/01/22 04:23:52;;;;;;;43.30;18.60;;;;;;;-128.00;-1.00;-1.00;133533;1274;1004571;-79
2024/01/22 04:26:53;;;;;;;42.20;18.80;;;;;;;-128.00;-1.00;-1.00;133555;1274;1004673;-78
2024/01/22 04:29:55;;;;;;;41.20;19.80;;;;;;;-128.00;-1.00;-1.00;133646;1274;1003736;-79
2024/01/22 04:32:56;;;;;;;43.70;20.80;;;;;;;-128.00;-1.00;-1.00;133581;1274;1004111;-80
2024/01/22 04:35:57;;;;;;;40.10;18.60;;;;;;;-128.00;-1.00;-1.00;133562;1274;1004580;-80
2024/01/22 04:38:58;;;;;;;40.20;18.90;;;;;;;-128.00;-1.00;-1.00;133566;1274;1004610;-81
2024/01/22 04:41:59;;;;;;;39.00;18.00;;;;;;;-128.00;-1.00;-1.00;133577;1274;1003968;-79
2024/01/22 04:45:00;;;;;;;54.50;26.10;;;;;;;-128.00;-1.00;-1.00;133592;1274;1003809;-78
2024/01/22 04:48:01;;;;;;;42.80;20.50;;;;;;;-128.00;-1.00;-1.00;133643;1274;1004189;-79
2024/01/22 04:51:02;;;;;;;37.80;17.80;;;;;;;-128.00;-1.00;-1.00;133590;1274;1004386;-78
2024/01/22 04:54:04;;;;;;;39.90;19.20;;;;;;;-128.00;-1.00;-1.00;133606;1274;1003606;-78
2024/01/22 04:57:05;;;;;;;40.00;17.70;;;;;;;-128.00;-1.00;-1.00;133558;1274;1004473;-78
2024/01/22 05:00:06;;;;;;;35.10;18.30;;;;;;;-128.00;-1.00;-1.00;133604;1274;1004544;-79
2024/01/22 05:03:07;;;;;;;44.20;18.80;;;;;;;-128.00;-1.00;-1.00;133626;1274;1004692;-79
2024/01/22 05:06:08;;;;;;;41.80;17.90;;;;;;;-128.00;-1.00;-1.00;133588;1274;1003869;-79
2024/01/22 05:09:09;;;;;;;35.10;18.00;;;;;;;-128.00;-1.00;-1.00;133551;1274;1004225;-79
2024/01/22 05:12:10;;;;;;;44.00;20.90;;;;;;;-128.00;-1.00;-1.00;133692;1274;1003908;-80
2024/01/22 05:15:12;;;;;;;40.20;18.60;;;;;;;-128.00;-1.00;-1.00;133707;1274;1003784;-79
2024/01/22 05:18:13;;;;;;;37.30;17.80;;;;;;;-128.00;-1.00;-1.00;133813;1274;1004133;-79
2024/01/22 05:21:15;;;;;;;45.30;19.30;;;;;;;-128.00;-1.00;-1.00;133646;1274;1004009;-78
2024/01/22 05:24:16;;;;;;;43.80;20.90;;;;;;;-128.00;-1.00;-1.00;133708;1274;1004631;-80
2024/01/22 05:27:17;;;;;;;49.50;22.50;;;;;;;-128.00;-1.00;-1.00;133660;1274;1004612;-80
2024/01/22 05:30:18;;;;;;;44.60;19.50;;;;;;;-128.00;-1.00;-1.00;133608;1274;1004234;-80
2024/01/22 05:33:20;;;;;;;47.90;19.30;;;;;;;-128.00;-1.00;-1.00;133617;1274;1004799;-80
2024/01/22 05:36:21;;;;;;;41.30;19.80;;;;;;;-128.00;-1.00;-1.00;133639;1274;1003992;-80
2024/01/22 05:39:22;;;;;;;47.20;20.30;;;;;;;-128.00;-1.00;-1.00;133543;1274;1004270;-80
2024/01/22 05:42:23;;;;;;;46.20;19.70;;;;;;;-128.00;-1.00;-1.00;133546;1274;1003556;-82
2024/01/22 05:45:24;;;;;;;41.30;19.50;;;;;;;-128.00;-1.00;-1.00;133547;1274;1004136;-79
2024/01/22 05:48:25;;;;;;;45.10;18.70;;;;;;;-128.00;-1.00;-1.00;133504;1274;1003845;-79
2024/01/22 05:51:26;;;;;;;43.30;19.10;;;;;;;-128.00;-1.00;-1.00;133522;1274;1004197;-79
2024/01/22 05:54:27;;;;;;;44.60;19.50;;;;;;;-128.00;-1.00;-1.00;133517;1274;1003745;-79
2024/01/22 05:57:28;;;;;;;36.90;18.40;;;;;;;-128.00;-1.00;-1.00;133522;1274;1003341;-79
2024/01/22 06:00:29;;;;;;;34.20;18.30;;;;;;;-128.00;-1.00;-1.00;133511;1274;1004075;-79
2024/01/22 06:03:30;;;;;;;39.70;17.90;;;;;;;-128.00;-1.00;-1.00;133554;1274;1003958;-78
2024/01/22 06:06:32;;;;;;;36.40;17.90;;;;;;;-128.00;-1.00;-1.00;133609;1274;1004755;-78
2024/01/22 06:09:33;;;;;;;39.00;18.20;;;;;;;-128.00;-1.00;-1.00;133514;1274;1004368;-78
2024/01/22 06:12:34;;;;;;;36.50;17.50;;;;;;;-128.00;-1.00;-1.00;133544;1274;1004370;-79
2024/01/22 06:15:36;;;;;;;33.70;16.40;;;;;;;-128.00;-1.00;-1.00;133534;1274;1004479;-78
2024/01/22 06:18:37;;;;;;;40.00;16.90;;;;;;;-128.00;-1.00;-1.00;133536;1274;1004869;-79
2024/01/22 06:21:38;;;;;;;37.10;16.90;;;;;;;-128.00;-1.00;-1.00;133516;1274;1003531;-79
2024/01/22 06:24:39;;;;;;;39.80;18.00;;;;;;;-128.00;-1.00;-1.00;133536;1274;1004525;-78
2024/01/22 06:27:44;;;;;;;32.00;15.10;;;;;;;-128.00;-1.00;-1.00;133499;1274;1004377;-79
2024/01/22 06:30:45;;;;;;;38.80;16.60;;;;;;;-128.00;-1.00;-1.00;133531;1274;1004276;-79
2024/01/22 06:33:46;;;;;;;32.20;15.50;;;;;;;-128.00;-1.00;-1.00;133545;1274;1003879;-79
2024/01/22 06:36:47;;;;;;;30.50;15.10;;;;;;;-128.00;-1.00;-1.00;133523;1274;1005108;-79
2024/01/22 06:39:48;;;;;;;29.90;14.80;;;;;;;-128.00;-1.00;-1.00;133558;1274;1004150;-79
2024/01/22 06:42:49;;;;;;;33.10;14.70;;;;;;;-128.00;-1.00;-1.00;133522;1274;1004868;-79
2024/01/22 06:45:50;;;;;;;31.80;13.70;;;;;;;-128.00;-1.00;-1.00;133546;1274;1004627;-77
2024/01/22 06:48:51;;;;;;;49.70;22.10;;;;;;;-128.00;-1.00;-1.00;133542;1274;1003961;-80
2024/01/22 06:51:52;;;;;;;35.00;17.40;;;;;;;-128.00;-1.00;-1.00;133545;1274;1005035;-79
2024/01/22 06:54:55;;;;;;;31.90;14.40;;;;;;;-128.00;-1.00;-1.00;133511;1274;1004141;-79
2024/01/22 06:57:56;;;;;;;28.10;13.20;;;;;;;-128.00;-1.00;-1.00;133557;1274;1003918;-80
2024/01/22 07:00:57;;;;;;;28.30;13.80;;;;;;;-128.00;-1.00;-1.00;133514;1274;1004727;-79
2024/01/22 07:03:58;;;;;;;27.90;13.30;;;;;;;-128.00;-1.00;-1.00;133508;1274;1004627;-79
2024/01/22 07:07:00;;;;;;;31.70;13.40;;;;;;;-128.00;-1.00;-1.00;133544;1273;1003513;-79
2024/01/22 07:10:01;;;;;;;27.80;13.40;;;;;;;-128.00;-1.00;-1.00;133535;1274;1004632;-79
2024/01/22 07:13:02;;;;;;;26.40;13.20;;;;;;;-128.00;-1.00;-1.00;133509;1274;1004103;-80
2024/01/22 07:16:04;;;;;;;22.70;12.00;;;;;;;-128.00;-1.00;-1.00;133540;1274;1003489;-79
2024/01/22 07:19:05;;;;;;;32.00;13.70;;;;;;;-128.00;-1.00;-1.00;133516;1274;1004613;-79
2024/01/22 07:22:06;;;;;;;27.00;13.60;;;;;;;-128.00;-1.00;-1.00;133530;1274;1003934;-78
2024/01/22 07:25:09;;;;;;;25.50;12.90;;;;;;;-128.00;-1.00;-1.00;133530;1274;1004013;-79
2024/01/22 07:28:11;;;;;;;30.30;14.40;;;;;;;-128.00;-1.00;-1.00;133584;1274;1004196;-79
2024/01/22 07:31:12;;;;;;;28.50;13.80;;;;;;;-128.00;-1.00;-1.00;133556;1274;1003505;-79
2024/01/22 07:34:13;;;;;;;31.40;14.30;;;;;;;-128.00;-1.00;-1.00;133626;1274;1004007;-78
2024/01/22 07:37:14;;;;;;;29.10;13.90;;;;;;;-128.00;-1.00;-1.00;133614;1274;1004586;-78
2024/01/22 07:40:15;;;;;;;26.40;13.10;;;;;;;-128.00;-1.00;-1.00;133586;1274;1003783;-79
2024/01/22 07:43:16;;;;;;;25.90;14.40;;;;;;;-128.00;-1.00;-1.00;133551;1274;1004040;-78
2024/01/22 07:46:17;;;;;;;28.00;13.80;;;;;;;-128.00;-1.00;-1.00;133445;1274;1003815;-79
2024/01/22 07:49:19;;;;;;;30.80;15.30;;;;;;;-128.00;-1.00;-1.00;133488;1274;1003625;-78
2024/01/22 07:52:20;;;;;;;30.50;15.40;;;;;;;-128.00;-1.00;-1.00;133517;1274;1005155;-79
2024/01/22 07:55:21;;;;;;;29.00;14.20;;;;;;;-128.00;-1.00;-1.00;133495;1274;1004714;-79
2024/01/22 07:58:22;;;;;;;25.60;14.00;;;;;;;-128.00;-1.00;-1.00;133574;1274;1004512;-79
2024/01/22 08:01:24;;;;;;;32.50;15.40;;;;;;;-128.00;-1.00;-1.00;133554;1274;1004690;-79
2024/01/22 08:04:25;;;;;;;28.50;14.50;;;;;;;-128.00;-1.00;-1.00;133581;1274;1003242;-79
2024/01/22 08:07:26;;;;;;;28.80;14.50;;;;;;;-128.00;-1.00;-1.00;133484;1274;1004123;-78
2024/01/22 08:10:27;;;;;;;32.20;15.50;;;;;;;-128.00;-1.00;-1.00;133408;1274;1005069;-78
2024/01/22 08:13:29;;;;;;;30.90;14.20;;;;;;;-128.00;-1.00;-1.00;133596;1274;1004130;-78
2024/01/22 08:16:30;;;;;;;31.80;15.50;;;;;;;-128.00;-1.00;-1.00;133591;1274;1004838;-78
2024/01/22 08:19:34;;;;;;;28.10;14.70;;;;;;;-128.00;-1.00;-1.00;133560;1274;1004575;-78
2024/01/22 08:22:35;;;;;;;31.50;16.60;;;;;;;-128.00;-1.00;-1.00;133541;1274;1004032;-79
2024/01/22 08:25:36;;;;;;;31.30;15.10;;;;;;;-128.00;-1.00;-1.00;133532;1274;1003581;-78
2024/01/22 08:28:37;;;;;;;38.20;17.60;;;;;;;-128.00;-1.00;-1.00;133484;1274;1004597;-79
2024/01/22 08:31:38;;;;;;;33.20;16.70;;;;;;;-128.00;-1.00;-1.00;133578;1274;1004713;-80
2024/01/22 08:34:39;;;;;;;35.80;16.50;;;;;;;-128.00;-1.00;-1.00;133556;1274;1004297;-78
2024/01/22 08:37:41;;;;;;;36.60;16.00;;;;;;;-128.00;-1.00;-1.00;133525;1274;1005439;-77
2024/01/22 08:44:20;;;;;;;29.00;15.40;;;;;;;-128.00;-1.00;-1.00;133567;1274;1004186;-78
2024/01/22 08:47:21;;;;;;;33.50;16.10;;;;;;;-128.00;-1.00;-1.00;133589;1274;1004481;-78
2024/01/22 08:50:22;;;;;;;29.30;15.30;;;;;;;-128.00;-1.00;-1.00;133526;1274;1004315;-79
2024/01/22 08:53:23;;;;;;;30.10;14.80;;;;;;;-128.00;-1.00;-1.00;133573;1274;1004433;-79
2024/01/22 08:56:24;;;;;;;34.20;16.00;;;;;;;-128.00;-1.00;-1.00;133520;1274;1004728;-78
2024/01/22 08:59:26;;;;;;;29.00;15.90;;;;;;;-128.00;-1.00;-1.00;133508;1273;1004358;-74
2024/01/22 09:02:27;;;;;;;32.20;15.30;;;;;;;-128.00;-1.00;-1.00;133515;1274;1004651;-77
2024/01/22 09:05:28;;;;;;;31.30;15.30;;;;;;;-128.00;-1.00;-1.00;133472;1274;1003576;-79
2024/01/22 09:08:29;;;;;;;28.80;14.60;;;;;;;-128.00;-1.00;-1.00;133505;1273;1004419;-78
2024/01/22 09:11:31;;;;;;;25.30;13.80;;;;;;;-128.00;-1.00;-1.00;133565;1274;1004834;-78
2024/01/22 09:14:32;;;;;;;28.80;16.60;;;;;;;-128.00;-1.00;-1.00;133555;1274;1003646;-78
2024/01/22 09:17:33;;;;;;;28.00;13.90;;;;;;;-128.00;-1.00;-1.00;133559;1274;1004320;-78
2024/01/22 09:20:35;;;;;;;29.20;14.50;;;;;;;-128.00;-1.00;-1.00;133518;1274;1004651;-78
2024/01/22 09:23:36;;;;;;;26.10;13.60;;;;;;;-128.00;-1.00;-1.00;133546;1274;1004188;-78
2024/01/22 09:26:37;;;;;;;24.10;13.20;;;;;;;-128.00;-1.00;-1.00;133571;1274;1004133;-78
2024/01/22 09:29:38;;;;;;;23.00;12.70;;;;;;;-128.00;-1.00;-1.00;133522;1274;1004388;-79
2024/01/22 09:32:40;;;;;;;27.40;13.50;;;;;;;-128.00;-1.00;-1.00;133569;1274;1004599;-78
2024/01/22 09:35:41;;;;;;;24.40;13.40;;;;;;;-128.00;-1.00;-1.00;133529;1274;1005016;-78
2024/01/22 09:38:42;;;;;;;25.40;12.90;;;;;;;-128.00;-1.00;-1.00;133569;1274;1003476;-79
2024/01/22 09:41:44;;;;;;;25.60;12.60;;;;;;;-128.00;-1.00;-1.00;133638;1274;1003959;-79
2024/01/22 09:44:45;;;;;;;24.30;12.20;;;;;;;-128.00;-1.00;-1.00;133600;1274;1004975;-78
2024/01/22 09:47:46;;;;;;;27.30;12.90;;;;;;;-128.00;-1.00;-1.00;133698;1274;1003707;-78
2024/01/22 09:50:47;;;;;;;29.20;12.70;;;;;;;-128.00;-1.00;-1.00;133753;1274;1003681;-78
2024/01/22 09:53:48;;;;;;;22.80;11.30;;;;;;;-128.00;-1.00;-1.00;133601;1274;1004518;-78
2024/01/22 09:56:50;;;;;;;28.70;12.70;;;;;;;-128.00;-1.00;-1.00;133624;1274;1004281;-78
2024/01/22 09:59:51;;;;;;;22.50;11.20;;;;;;;-128.00;-1.00;-1.00;133622;1274;1004227;-79
2024/01/22 10:02:52;;;;;;;23.00;10.90;;;;;;;-128.00;-1.00;-1.00;133635;1273;1003842;-79
2024/01/22 10:05:53;;;;;;;54.20;15.50;;;;;;;-128.00;-1.00;-1.00;133598;1274;1003848;-79
2024/01/22 10:08:54;;;;;;;25.70;12.10;;;;;;;-128.00;-1.00;-1.00;133572;1274;1005249;-79
2024/01/22 10:11:55;;;;;;;21.20;12.10;;;;;;;-128.00;-1.00;-1.00;133531;1274;1004391;-78
2024/01/22 10:14:56;;;;;;;22.40;11.50;;;;;;;-128.00;-1.00;-1.00;133548;1274;1004037;-79
2024/01/22 10:17:57;;;;;;;25.30;11.70;;;;;;;-128.00;-1.00;-1.00;133566;1274;1005143;-79
2024/01/22 10:20:59;;;;;;;23.20;11.80;;;;;;;-128.00;-1.00;-1.00;133531;1274;1003463;-81
2024/01/22 10:24:00;;;;;;;23.70;11.20;;;;;;;-128.00;-1.00;-1.00;133578;1274;1004297;-79
2024/01/22 10:27:01;;;;;;;25.10;11.90;;;;;;;-128.00;-1.00;-1.00;133572;1274;1004865;-79
2024/01/22 10:30:02;;;;;;;29.70;12.70;;;;;;;-128.00;-1.00;-1.00;133607;1274;1005033;-77
2024/01/22 10:33:03;;;;;;;23.30;12.10;;;;;;;-128.00;-1.00;-1.00;133632;1274;1003747;-79
2024/01/22 10:36:04;;;;;;;19.60;10.40;;;;;;;-128.00;-1.00;-1.00;133625;1274;1004636;-79
2024/01/22 10:39:06;;;;;;;19.40;10.10;;;;;;;-128.00;-1.00;-1.00;133617;1274;1004764;-79
2024/01/22 10:42:07;;;;;;;19.80;10.40;;;;;;;-128.00;-1.00;-1.00;133562;1274;1004319;-79
2024/01/22 10:45:08;;;;;;;17.70;9.90;;;;;;;-128.00;-1.00;-1.00;133565;1274;1003873;-79
2024/01/22 10:48:09;;;;;;;24.00;10.00;;;;;;;-128.00;-1.00;-1.00;133539;1274;1004784;-80
2024/01/22 10:51:10;;;;;;;15.90;9.20;;;;;;;-128.00;-1.00;-1.00;133555;1274;1004597;-79
2024/01/22 10:54:11;;;;;;;18.20;10.60;;;;;;;-128.00;-1.00;-1.00;133573;1274;1005135;-79
2024/01/22 10:57:12;;;;;;;21.00;13.40;;;;;;;-128.00;-1.00;-1.00;133511;1274;1003708;-79
2024/01/22 11:00:15;;;;;;;17.00;10.20;;;;;;;-128.00;-1.00;-1.00;133536;1274;1004447;-78
2024/01/22 11:03:16;;;;;;;19.50;10.20;;;;;;;-128.00;-1.00;-1.00;133559;1274;1004854;-78
2024/01/22 11:06:18;;;;;;;17.50;10.20;;;;;;;-128.00;-1.00;-1.00;133564;1274;1003623;-77
2024/01/22 11:09:19;;;;;;;16.10;10.20;;;;;;;-128.00;-1.00;-1.00;133554;1274;1003931;-78
2024/01/22 11:12:21;;;;;;;19.60;10.00;;;;;;;-128.00;-1.00;-1.00;133564;1274;1003641;-78
2024/01/22 11:15:22;;;;;;;21.30;10.90;;;;;;;-128.00;-1.00;-1.00;133597;1274;1004446;-78
2024/01/22 11:18:24;;;;;;;19.30;10.70;;;;;;;-128.00;-1.00;-1.00;133577;1274;1005148;-77
2024/01/22 11:21:25;;;;;;;18.30;11.00;;;;;;;-128.00;-1.00;-1.00;133576;1274;1004466;-78
2024/01/22 11:24:26;;;;;;;22.80;11.10;;;;;;;-128.00;-1.00;-1.00;133581;1274;1004613;-78
2024/01/22 11:27:27;;;;;;;20.50;11.00;;;;;;;-128.00;-1.00;-1.00;133614;1274;1004875;-78
2024/01/22 11:30:29;;;;;;;23.00;11.20;;;;;;;-128.00;-1.00;-1.00;133587;1274;1004486;-78
2024/01/22 11:33:31;;;;;;;22.70;11.70;;;;;;;-128.00;-1.00;-1.00;133530;1274;1004495;-78
2024/01/22 11:36:32;;;;;;;25.00;10.90;;;;;;;-128.00;-1.00;-1.00;133565;1274;1004587;-78
2024/01/22 11:39:34;;;;;;;24.70;12.00;;;;;;;-128.00;-1.00;-1.00;133508;1274;1004868;-78
2024/01/22 11:42:36;;;;;;;22.60;11.60;;;;;;;-128.00;-1.00;-1.00;133537;1274;1004944;-76
2024/01/22 11:45:37;;;;;;;24.40;12.00;;;;;;;-128.00;-1.00;-1.00;133540;1274;1003716;-78
2024/01/22 11:48:38;;;;;;;37.50;20.40;;;;;;;-128.00;-1.00;-1.00;133580;1274;1004182;-78
2024/01/22 11:51:39;;;;;;;26.60;14.70;;;;;;;-128.00;-1.00;-1.00;133526;1274;1004246;-76
2024/01/22 11:54:40;;;;;;;35.40;17.40;;;;;;;-128.00;-1.00;-1.00;133540;1274;1004233;-78
2024/01/22 11:57:42;;;;;;;30.50;15.00;;;;;;;-128.00;-1.00;-1.00;133559;1274;1003829;-79
2024/01/22 12:00:43;;;;;;;39.20;19.20;;;;;;;-128.00;-1.00;-1.00;133555;1274;1004057;-79
2024/01/22 12:03:44;;;;;;;32.20;16.10;;;;;;;-128.00;-1.00;-1.00;133565;1274;1004729;-78
2024/01/22 12:06:46;;;;;;;33.40;15.40;;;;;;;-128.00;-1.00;-1.00;133518;1274;1004608;-79
2024/01/22 12:09:47;;;;;;;28.40;15.90;;;;;;;-128.00;-1.00;-1.00;133111;1274;1004412;-78
2024/01/22 12:12:48;;;;;;;28.40;15.20;;;;;;;-128.00;-1.00;-1.00;133520;1274;1004057;-79
2024/01/22 12:15:49;;;;;;;33.10;15.20;;;;;;;-128.00;-1.00;-1.00;133575;1274;1004180;-78
2024/01/22 12:18:50;;;;;;;39.30;16.90;;;;;;;-128.00;-1.00;-1.00;133608;1273;1004831;-78
2024/01/22 12:21:52;;;;;;;27.50;15.80;;;;;;;-128.00;-1.00;-1.00;133630;1274;1004147;-79
2024/01/22 12:24:53;;;;;;;29.00;13.60;;;;;;;-128.00;-1.00;-1.00;133595;1274;1004820;-78
2024/01/22 12:27:54;;;;;;;33.60;13.00;;;;;;;-128.00;-1.00;-1.00;133582;1274;1004160;-78
2024/01/22 12:30:55;;;;;;;33.70;13.90;;;;;;;-128.00;-1.00;-1.00;133583;1274;1003961;-78
2024/01/22 12:33:56;;;;;;;31.60;14.60;;;;;;;-128.00;-1.00;-1.00;133491;1274;1004665;-77
2024/01/22 12:36:57;;;;;;;23.00;11.90;;;;;;;-128.00;-1.00;-1.00;133441;1274;1003907;-78
2024/01/22 12:40:01;;;;;;;23.60;13.00;;;;;;;-128.00;-1.00;-1.00;133557;1274;1004456;-79
2024/01/22 12:43:03;;;;;;;26.10;13.10;;;;;;;-128.00;-1.00;-1.00;133526;1274;1004775;-79
2024/01/22 12:46:04;;;;;;;26.40;12.90;;;;;;;-128.00;-1.00;-1.00;133538;1274;1004180;-79
2024/01/22 12:49:08;;;;;;;24.50;13.50;;;;;;;-128.00;-1.00;-1.00;133554;1274;1004203;-78
2024/01/22 12:52:09;;;;;;;21.30;12.60;;;;;;;-128.00;-1.00;-1.00;133549;1274;1004925;-79
2024/01/22 12:55:10;;;;;;;23.90;12.60;;;;;;;-128.00;-1.00;-1.00;133534;1274;1004598;-79
2024/01/22 12:58:12;;;;;;;24.30;12.40;;;;;;;-128.00;-1.00;-1.00;133558;1274;1004226;-79
2024/01/22 13:01:13;;;;;;;25.70;13.00;;;;;;;-128.00;-1.00;-1.00;133539;1274;1004698;-78
2024/01/22 13:04:16;;;;;;;30.80;14.20;;;;;;;-128.00;-1.00;-1.00;133540;1274;1004566;-78
2024/01/22 13:07:17;;;;;;;38.40;16.30;;;;;;;-128.00;-1.00;-1.00;133474;1274;1004680;-79
2024/01/22 13:10:18;;;;;;;28.20;15.50;;;;;;;-128.00;-1.00;-1.00;133521;1274;1003911;-80
2024/01/22 13:13:19;;;;;;;29.40;16.60;;;;;;;-128.00;-1.00;-1.00;133540;1274;1003481;-78
2024/01/22 13:16:21;;;;;;;29.40;14.10;;;;;;;-128.00;-1.00;-1.00;133538;1274;1004981;-79
2024/01/22 13:19:22;;;;;;;29.70;15.50;;;;;;;-128.00;-1.00;-1.00;133465;1274;1004979;-79
2024/01/22 13:22:26;;;;;;;33.20;16.60;;;;;;;-128.00;-1.00;-1.00;133437;1274;1004357;-78
2024/01/22 13:25:28;;;;;;;35.80;18.70;;;;;;;-128.00;-1.00;-1.00;133436;1274;1005058;-78
2024/01/22 13:28:30;;;;;;;34.60;18.10;;;;;;;-128.00;-1.00;-1.00;133427;1274;1004574;-79
2024/01/22 13:31:32;;;;;;;31.20;15.30;;;;;;;-128.00;-1.00;-1.00;133409;1274;1004244;-79
2024/01/22 13:34:33;;;;;;;28.00;13.50;;;;;;;-128.00;-1.00;-1.00;133453;1274;1005028;-79
2024/01/22 13:37:34;;;;;;;16.50;9.30;;;;;;;-128.00;-1.00;-1.00;133437;1274;1004395;-80